ULLI/LED METAR and TAF weather

Enter ICAO airport designator
Station Type Date Time Source
ULLI METAR 2020/02/18 10:30 UTC NOAA

ULLI 181030Z 23005G10MPS 180V270 9999 BKN017CB OVC036 06/03 Q0994 R88/290050 NOSIG


Station Type Date Time Source
ULLI Decoded METAR 2020/02/18 10:30 UTC NOAA

St. Peterburg, Russia (ULLI) 59-58N 030-18E 6M
Feb 18, 2020 - 05:30 AM EST / 2020.02.18 1030 UTC
Wind: from the SW (230 degrees) at 11 MPH (10 KT) gusting to 22 MPH (19 KT) (direction variable):0
Visibility: greater than 7 mile(s):0
Sky conditions: overcast
Weather: Cumulonimbus clouds observed
Temperature: 42 F (6 C)
Dew Point: 37 F (3 C)
Relative Humidity: 81%
Pressure (altimeter): 29.35 in. Hg (0994 hPa)
ob: ULLI 181030Z 23005G10MPS 180V270 9999 BKN017CB OVC036 06/03 Q0994 R88/290050 NOSIG
cycle: 10

Station Type Date Time Source
ULLI TAF 2020/02/18 09:21 UTC NOAA

TAF TAF ULLI 180757Z 1809/1909 23008G13MPS 9999 SCT011 BKN020
TEMPO 1809/1815 25012G19MPS 3100 -SHRA BKN010 BKN017CB
TEMPO 1815/1909 3100 -SHRA BKN010 BKN017CB

Example: see airport list